sensor_id;sensor_type;location;lat;lon;timestamp;pressure;altitude;pressure_sealevel;temperature;humidity
65546;BME280;52177;55.968;37.498;2022-09-09T00:00:13;100463.66;;;6.14;72.59
65546;BME280;52177;55.968;37.498;2022-09-09T00:00:48;100462.66;;;6.15;72.72
65546;BME280;52177;55.968;37.498;2022-09-09T00:02:26;100458.34;;;6.14;72.79
65546;BME280;52177;55.968;37.498;2022-09-09T00:03:14;100467.97;;;6.15;72.92
65546;BME280;52177;55.968;37.498;2022-09-09T00:04:13;100467.97;;;6.15;72.64
65546;BME280;52177;55.968;37.498;2022-09-09T00:05:00;100470.63;;;6.15;72.71
65546;BME280;52177;55.968;37.498;2022-09-09T00:06:14;100463.66;;;6.14;72.90
65546;BME280;52177;55.968;37.498;2022-09-09T00:07:10;100467.97;;;6.15;73.22
65546;BME280;52177;55.968;37.498;2022-09-09T00:07:47;100476.63;;;6.17;73.15
65546;BME280;52177;55.968;37.498;2022-09-09T00:08:22;100472.03;;;6.19;72.97
65546;BME280;52177;55.968;37.498;2022-09-09T00:09:11;100476.34;;;6.20;72.92
65546;BME280;52177;55.968;37.498;2022-09-09T00:10:00;100475.28;;;6.23;72.95
65546;BME280;52177;55.968;37.498;2022-09-09T00:10:39;100481.53;;;6.22;72.86
65546;BME280;52177;55.968;37.498;2022-09-09T00:11:13;100467.34;;;6.23;72.82
65546;BME280;52177;55.968;37.498;2022-09-09T00:12:08;100477.22;;;6.21;72.80
65546;BME280;52177;55.968;37.498;2022-09-09T00:13:02;100477.22;;;6.21;72.93
65546;BME280;52177;55.968;37.498;2022-09-09T00:13:42;100468.41;;;6.20;73.04
65546;BME280;52177;55.968;37.498;2022-09-09T00:15:00;100474.56;;;6.21;73.12
65546;BME280;52177;55.968;37.498;2022-09-09T00:16:54;100469.84;;;6.24;72.87
65546;BME280;52177;55.968;37.498;2022-09-09T00:17:57;100471.38;;;6.27;72.65
65546;BME280;52177;55.968;37.498;2022-09-09T00:19:38;100484.38;;;6.30;72.83
65546;BME280;52177;55.968;37.498;2022-09-09T00:20:28;100474.75;;;6.29;72.82
65546;BME280;52177;55.968;37.498;2022-09-09T00:21:20;100476.56;;;6.28;72.81
65546;BME280;52177;55.968;37.498;2022-09-09T00:22:06;100473.09;;;6.28;72.52
65546;BME280;52177;55.968;37.498;2022-09-09T00:22:52;100471.25;;;6.28;72.66
65546;BME280;52177;55.968;37.498;2022-09-09T00:23:28;100478.22;;;6.29;72.93
65546;BME280;52177;55.968;37.498;2022-09-09T00:24:00;100478.22;;;6.29;72.91
65546;BME280;52177;55.968;37.498;2022-09-09T00:24:47;100479.09;;;6.30;72.69
65546;BME280;52177;55.968;37.498;2022-09-09T00:25:26;100484.63;;;6.27;72.57
65546;BME280;52177;55.968;37.498;2022-09-09T00:26:51;100475.84;;;6.26;72.70
65546;BME280;52177;55.968;37.498;2022-09-09T00:27:53;100481.53;;;6.22;72.76
65546;BME280;52177;55.968;37.498;2022-09-09T00:28:26;100477.94;;;6.23;72.79
65546;BME280;52177;55.968;37.498;2022-09-09T00:29:14;100483.22;;;6.23;72.80
65546;BME280;52177;55.968;37.498;2022-09-09T00:30:16;100481.41;;;6.23;72.80
65546;BME280;52177;55.968;37.498;2022-09-09T00:30:50;100484.19;;;6.22;72.76
65546;BME280;52177;55.968;37.498;2022-09-09T00:31:30;100485.00;;;6.22;72.74
65546;BME280;52177;55.968;37.498;2022-09-09T00:32:11;100485.16;;;6.21;72.82
65546;BME280;52177;55.968;37.498;2022-09-09T00:32:43;100483.34;;;6.21;72.73
65546;BME280;52177;55.968;37.498;2022-09-09T00:33:19;100489.59;;;6.20;72.88
65546;BME280;52177;55.968;37.498;2022-09-09T00:33:53;100491.28;;;6.21;72.74
65546;BME280;52177;55.968;37.498;2022-09-09T00:34:27;100485.16;;;6.21;72.62
65546;BME280;52177;55.968;37.498;2022-09-09T00:35:27;100483.63;;;6.18;72.94
65546;BME280;52177;55.968;37.498;2022-09-09T00:36:09;100488.91;;;6.18;72.82
65546;BME280;52177;55.968;37.498;2022-09-09T00:36:41;100489.84;;;6.17;72.61
65546;BME280;52177;55.968;37.498;2022-09-09T00:37:14;100488.03;;;6.18;72.73
65546;BME280;52177;55.968;37.498;2022-09-09T00:37:48;100489.84;;;6.17;72.89
65546;BME280;52177;55.968;37.498;2022-09-09T00:38:39;100486.25;;;6.18;72.82
65546;BME280;52177;55.968;37.498;2022-09-09T00:39:37;100484.44;;;6.19;72.71
65546;BME280;52177;55.968;37.498;2022-09-09T00:40:24;100488.19;;;6.16;72.76
65546;BME280;52177;55.968;37.498;2022-09-09T00:41:11;100489.03;;;6.17;72.67
65546;BME280;52177;55.968;37.498;2022-09-09T00:42:40;100482.31;;;6.12;72.83
65546;BME280;52177;55.968;37.498;2022-09-09T00:43:26;100494.81;;;6.10;72.88
65546;BME280;52177;55.968;37.498;2022-09-09T00:44:02;100499.28;;;6.10;72.85
65546;BME280;52177;55.968;37.498;2022-09-09T00:44:36;100493.00;;;6.11;72.95
65546;BME280;52177;55.968;37.498;2022-09-09T00:47:12;100500.94;;;6.11;72.73
65546;BME280;52177;55.968;37.498;2022-09-09T00:47:52;100497.47;;;6.10;72.86
65546;BME280;52177;55.968;37.498;2022-09-09T00:48:33;100499.16;;;6.11;72.73
65546;BME280;52177;55.968;37.498;2022-09-09T00:49:15;100503.88;;;6.08;72.80
65546;BME280;52177;55.968;37.498;2022-09-09T00:56:06;100500.25;;;6.09;73.32
65546;BME280;52177;55.968;37.498;2022-09-09T00:57:39;100507.34;;;6.08;73.22
65546;BME280;52177;55.968;37.498;2022-09-09T00:58:12;100504.69;;;6.08;73.14
65546;BME280;52177;55.968;37.498;2022-09-09T00:59:50;100508.88;;;6.11;73.25
65546;BME280;52177;55.968;37.498;2022-09-09T01:01:13;100504.47;;;6.11;73.62
65546;BME280;52177;55.968;37.498;2022-09-09T01:01:43;100506.13;;;6.12;73.38
65546;BME280;52177;55.968;37.498;2022-09-09T01:02:27;100502.53;;;6.13;73.57
65546;BME280;52177;55.968;37.498;2022-09-09T01:03:59;100502.25;;;6.17;73.53
65546;BME280;52177;55.968;37.498;2022-09-09T01:04:34;100503.22;;;6.16;73.43
65546;BME280;52177;55.968;37.498;2022-09-09T01:05:27;100507.81;;;6.13;73.44
65546;BME280;52177;55.968;37.498;2022-09-09T01:06:54;100503.75;;;6.09;73.37
65546;BME280;52177;55.968;37.498;2022-09-09T01:07:27;100508.19;;;6.09;73.39
65546;BME280;52177;55.968;37.498;2022-09-09T01:07:58;100505.56;;;6.09;73.39
65546;BME280;52177;55.968;37.498;2022-09-09T01:09:51;100510.84;;;6.09;73.55
65546;BME280;52177;55.968;37.498;2022-09-09T01:10:45;100511.81;;;6.08;73.42
65546;BME280;52177;55.968;37.498;2022-09-09T01:12:17;100519.47;;;6.11;73.59
65546;BME280;52177;55.968;37.498;2022-09-09T01:12:48;100516.84;;;6.11;73.78
65546;BME280;52177;55.968;37.498;2022-09-09T01:15:07;100516.84;;;6.11;73.49
65546;BME280;52177;55.968;37.498;2022-09-09T01:15:40;100511.41;;;6.12;73.35
65546;BME280;52177;55.968;37.498;2022-09-09T01:16:12;100514.06;;;6.12;73.34
65546;BME280;52177;55.968;37.498;2022-09-09T01:16:44;100515.88;;;6.12;73.22
65546;BME280;52177;55.968;37.498;2022-09-09T01:17:25;100518.53;;;6.12;73.26
65546;BME280;52177;55.968;37.498;2022-09-09T01:18:17;100516.72;;;6.12;73.13
65546;BME280;52177;55.968;37.498;2022-09-09T01:18:52;100517.53;;;6.13;73.17
65546;BME280;52177;55.968;37.498;2022-09-09T01:19:45;100520.19;;;6.13;73.51
65546;BME280;52177;55.968;37.498;2022-09-09T01:20:36;100514.91;;;6.13;73.33
65546;BME280;52177;55.968;37.498;2022-09-09T01:21:39;100523.09;;;6.10;73.31
65546;BME280;52177;55.968;37.498;2022-09-09T01:24:01;100520.84;;;6.05;73.50
65546;BME280;52177;55.968;37.498;2022-09-09T01:24:45;100523.50;;;6.05;73.32
65546;BME280;52177;55.968;37.498;2022-09-09T01:25:28;100530.59;;;6.05;73.50
65546;BME280;52177;55.968;37.498;2022-09-09T01:26:56;100521.09;;;6.02;73.61
65546;BME280;52177;55.968;37.498;2022-09-09T01:27:29;100527.34;;;6.01;73.43
65546;BME280;52177;55.968;37.498;2022-09-09T01:28:03;100522.19;;;6.00;73.35
65546;BME280;52177;55.968;37.498;2022-09-09T01:28:37;100527.59;;;5.98;73.63
65546;BME280;52177;55.968;37.498;2022-09-09T01:29:14;100526.06;;;5.96;73.51
65546;BME280;52177;55.968;37.498;2022-09-09T01:29:45;100532.19;;;5.96;73.75
65546;BME280;52177;55.968;37.498;2022-09-09T01:30:18;100529.41;;;5.98;73.86
65546;BME280;52177;55.968;37.498;2022-09-09T01:30:49;100528.81;;;5.94;73.86
65546;BME280;52177;55.968;37.498;2022-09-09T01:31:24;100526.28;;;5.92;73.83
65546;BME280;52177;55.968;37.498;2022-09-09T01:32:49;100530.84;;;5.90;73.90
65546;BME280;52177;55.968;37.498;2022-09-09T01:33:19;100529.31;;;5.88;73.94
65546;BME280;52177;55.968;37.498;2022-09-09T01:33:50;100524.97;;;5.87;74.20
65546;BME280;52177;55.968;37.498;2022-09-09T01:34:22;100532.91;;;5.87;74.02
65546;BME280;52177;55.968;37.498;2022-09-09T01:34:53;100530.25;;;5.87;74.15
65546;BME280;52177;55.968;37.498;2022-09-09T01:36:07;100533.06;;;5.85;74.18
65546;BME280;52177;55.968;37.498;2022-09-09T01:37:13;100530.41;;;5.85;74.37
65546;BME280;52177;55.968;37.498;2022-09-09T01:37:43;100535.56;;;5.87;74.53
65546;BME280;52177;55.968;37.498;2022-09-09T01:38:14;100533.06;;;5.85;74.43
65546;BME280;52177;55.968;37.498;2022-09-09T01:38:45;100533.88;;;5.86;74.34
65546;BME280;52177;55.968;37.498;2022-09-09T01:39:15;100530.41;;;5.85;74.31
65546;BME280;52177;55.968;37.498;2022-09-09T01:39:45;100532.78;;;5.88;74.23
65546;BME280;52177;55.968;37.498;2022-09-09T01:40:16;100533.75;;;5.87;74.41
65546;BME280;52177;55.968;37.498;2022-09-09T01:40:46;100535.44;;;5.88;74.30
65546;BME280;52177;55.968;37.498;2022-09-09T01:41:17;100532.69;;;5.90;74.18
65546;BME280;52177;55.968;37.498;2022-09-09T01:41:48;100537.97;;;5.90;74.40
65546;BME280;52177;55.968;37.498;2022-09-09T01:42:18;100543.13;;;5.91;74.29
65546;BME280;52177;55.968;37.498;2022-09-09T01:42:49;100539.53;;;5.92;74.12
65546;BME280;52177;55.968;37.498;2022-09-09T01:43:21;100538.53;;;5.93;74.08
65546;BME280;52177;55.968;37.498;2022-09-09T01:43:53;100536.63;;;5.96;73.75
65546;BME280;52177;55.968;37.498;2022-09-09T01:44:25;100539.28;;;5.96;73.76
65546;BME280;52177;55.968;37.498;2022-09-09T01:44:56;100541.09;;;5.95;73.79
65546;BME280;52177;55.968;37.498;2022-09-09T01:45:26;100540.25;;;5.95;73.52
65546;BME280;52177;55.968;37.498;2022-09-09T01:45:59;100539.41;;;5.94;73.87
65546;BME280;52177;55.968;37.498;2022-09-09T01:46:31;100544.81;;;5.92;73.64
65546;BME280;52177;55.968;37.498;2022-09-09T01:47:02;100543.13;;;5.91;73.87
65546;BME280;52177;55.968;37.498;2022-09-09T01:47:32;100537.81;;;5.91;73.89
65546;BME280;52177;55.968;37.498;2022-09-09T01:48:03;100538.66;;;5.92;73.82
65546;BME280;52177;55.968;37.498;2022-09-09T01:48:33;100543.94;;;5.92;73.86
65546;BME280;52177;55.968;37.498;2022-09-09T01:49:05;100536.88;;;5.92;74.06
65546;BME280;52177;55.968;37.498;2022-09-09T01:49:36;100545.53;;;5.95;73.73
65546;BME280;52177;55.968;37.498;2022-09-09T01:50:10;100541.19;;;5.93;73.81
65546;BME280;52177;55.968;37.498;2022-09-09T01:50:42;100548.28;;;5.93;73.73
65546;BME280;52177;55.968;37.498;2022-09-09T01:51:12;100544.81;;;5.92;73.68
65546;BME280;52177;55.968;37.498;2022-09-09T01:51:43;100542.16;;;5.92;73.86
65546;BME280;52177;55.968;37.498;2022-09-09T01:52:13;100539.53;;;5.92;73.71
65546;BME280;52177;55.968;37.498;2022-09-09T01:52:46;100538.53;;;5.93;73.83
65546;BME280;52177;55.968;37.498;2022-09-09T01:53:20;100544.59;;;5.96;73.83
65546;BME280;52177;55.968;37.498;2022-09-09T01:53:51;100538.53;;;5.93;73.69
65546;BME280;52177;55.968;37.498;2022-09-09T01:54:24;100544.69;;;5.94;74.00
65546;BME280;52177;55.968;37.498;2022-09-09T01:54:56;100541.19;;;5.93;73.81
65546;BME280;52177;55.968;37.498;2022-09-09T01:55:32;100544.81;;;5.92;73.90
65546;BME280;52177;55.968;37.498;2022-09-09T01:57:33;100543.13;;;5.91;74.23
65546;BME280;52177;55.968;37.498;2022-09-09T02:00:09;100552.53;;;5.96;74.26
65546;BME280;52177;55.968;37.498;2022-09-09T02:00:50;100552.41;;;5.97;74.11
65546;BME280;52177;55.968;37.498;2022-09-09T02:01:40;100544.47;;;5.97;74.14
65546;BME280;52177;55.968;37.498;2022-09-09T02:02:18;100549.75;;;5.97;74.06
65546;BME280;52177;55.968;37.498;2022-09-09T02:03:00;100555.16;;;5.96;74.22
65546;BME280;52177;55.968;37.498;2022-09-09T02:03:35;100551.69;;;5.95;74.03
65546;BME280;52177;55.968;37.498;2022-09-09T02:04:32;100554.34;;;5.95;74.06
65546;BME280;52177;55.968;37.498;2022-09-09T02:05:35;100546.59;;;5.92;73.82
65546;BME280;52177;55.968;37.498;2022-09-09T02:06:45;100550.34;;;5.89;73.78
65546;BME280;52177;55.968;37.498;2022-09-09T02:07:37;100555.63;;;5.89;73.75
65546;BME280;52177;55.968;37.498;2022-09-09T02:08:11;100557.44;;;5.89;73.85
65546;BME280;52177;55.968;37.498;2022-09-09T02:08:49;100556.72;;;5.87;73.75
65546;BME280;52177;55.968;37.498;2022-09-09T02:09:23;100554.91;;;5.87;73.97
65546;BME280;52177;55.968;37.498;2022-09-09T02:10:19;100553.50;;;5.83;73.92
65546;BME280;52177;55.968;37.498;2022-09-09T02:10:58;100553.50;;;5.83;74.01
65546;BME280;52177;55.968;37.498;2022-09-09T02:11:32;100550.97;;;5.82;74.24
65546;BME280;52177;55.968;37.498;2022-09-09T02:12:12;100558.91;;;5.82;74.10
65546;BME280;52177;55.968;37.498;2022-09-09T02:12:47;100554.59;;;5.81;74.26
65546;BME280;52177;55.968;37.498;2022-09-09T02:13:21;100556.38;;;5.80;74.32
65546;BME280;52177;55.968;37.498;2022-09-09T02:13:55;100559.03;;;5.80;74.23
65546;BME280;52177;55.968;37.498;2022-09-09T02:14:30;100557.34;;;5.79;74.38
65546;BME280;52177;55.968;37.498;2022-09-09T02:15:11;100560.00;;;5.79;74.30
65546;BME280;52177;55.968;37.498;2022-09-09T02:17:09;100556.16;;;5.72;74.29
65546;BME280;52177;55.968;37.498;2022-09-09T02:17:41;100553.63;;;5.70;74.31
65546;BME280;52177;55.968;37.498;2022-09-09T02:18:13;100563.38;;;5.70;74.20
65546;BME280;52177;55.968;37.498;2022-09-09T02:19:00;100555.44;;;5.70;74.38
65546;BME280;52177;55.968;37.498;2022-09-09T02:19:37;100555.56;;;5.68;74.54
65546;BME280;52177;55.968;37.498;2022-09-09T02:20:13;100551.38;;;5.66;74.62
65546;BME280;52177;55.968;37.498;2022-09-09T02:20:44;100561.00;;;5.67;74.74
65546;BME280;52177;55.968;37.498;2022-09-09T02:21:17;100557.47;;;5.66;74.74
65546;BME280;52177;55.968;37.498;2022-09-09T02:21:47;100557.47;;;5.66;74.66
65546;BME280;52177;55.968;37.498;2022-09-09T02:22:22;100561.09;;;5.65;74.81
65546;BME280;52177;55.968;37.498;2022-09-09T02:22:55;100557.63;;;5.65;74.70
65546;BME280;52177;55.968;37.498;2022-09-09T02:23:27;100564.00;;;5.62;74.70
65546;BME280;52177;55.968;37.498;2022-09-09T02:24:00;100556.06;;;5.62;74.68
65546;BME280;52177;55.968;37.498;2022-09-09T02:24:37;100555.22;;;5.62;74.52
65546;BME280;52177;55.968;37.498;2022-09-09T02:25:10;100563.28;;;5.60;74.49
65546;BME280;52177;55.968;37.498;2022-09-09T02:25:42;100564.13;;;5.61;74.37
65546;BME280;52177;55.968;37.498;2022-09-09T02:26:16;100565.78;;;5.62;74.52
65546;BME280;52177;55.968;37.498;2022-09-09T02:26:52;100560.50;;;5.62;74.44
65546;BME280;52177;55.968;37.498;2022-09-09T02:27:25;100570.38;;;5.60;74.58
65546;BME280;52177;55.968;37.498;2022-09-09T02:27:56;100561.59;;;5.59;74.45
65546;BME280;52177;55.968;37.498;2022-09-09T02:28:33;100566.19;;;5.57;74.53
65546;BME280;52177;55.968;37.498;2022-09-09T02:29:08;100562.69;;;5.57;74.43
65546;BME280;52177;55.968;37.498;2022-09-09T02:29:42;100568.94;;;5.56;74.32
65546;BME280;52177;55.968;37.498;2022-09-09T02:30:13;100563.91;;;5.53;74.37
65546;BME280;52177;55.968;37.498;2022-09-09T02:30:45;100568.34;;;5.52;74.50
65546;BME280;52177;55.968;37.498;2022-09-09T02:31:20;100570.16;;;5.52;74.35
65546;BME280;52177;55.968;37.498;2022-09-09T02:31:52;100566.78;;;5.49;74.50
65546;BME280;52177;55.968;37.498;2022-09-09T02:32:25;100566.06;;;5.47;74.27
65546;BME280;52177;55.968;37.498;2022-09-09T02:32:57;100567.97;;;5.45;74.35
65546;BME280;52177;55.968;37.498;2022-09-09T02:33:35;100565.59;;;5.42;74.43
65546;BME280;52177;55.968;37.498;2022-09-09T02:34:09;100568.22;;;5.42;74.31
65546;BME280;52177;55.968;37.498;2022-09-09T02:34:47;100569.22;;;5.41;74.39
65546;BME280;52177;55.968;37.498;2022-09-09T02:35:21;100572.81;;;5.40;74.37
65546;BME280;52177;55.968;37.498;2022-09-09T02:35:52;100571.03;;;5.41;74.28
65546;BME280;52177;55.968;37.498;2022-09-09T02:36:29;100573.66;;;5.41;74.25
65546;BME280;52177;55.968;37.498;2022-09-09T02:37:03;100574.50;;;5.41;74.44
65546;BME280;52177;55.968;37.498;2022-09-09T02:37:38;100577.16;;;5.41;74.37
65546;BME280;52177;55.968;37.498;2022-09-09T02:38:12;100579.78;;;5.41;74.19
65546;BME280;52177;55.968;37.498;2022-09-09T02:38:46;100575.59;;;5.39;74.14
65546;BME280;52177;55.968;37.498;2022-09-09T02:39:23;100574.88;;;5.37;74.01
65546;BME280;52177;55.968;37.498;2022-09-09T02:39:53;100580.25;;;5.35;74.11
65546;BME280;52177;55.968;37.498;2022-09-09T02:40:24;100581.34;;;5.33;74.04
65546;BME280;52177;55.968;37.498;2022-09-09T02:40:54;100577.03;;;5.32;74.35
65546;BME280;52177;55.968;37.498;2022-09-09T02:41:43;100575.22;;;5.32;74.29
65546;BME280;52177;55.968;37.498;2022-09-09T02:42:13;100587.72;;;5.30;74.30
65546;BME280;52177;55.968;37.498;2022-09-09T02:42:47;100584.34;;;5.28;74.22
65546;BME280;52177;55.968;37.498;2022-09-09T02:43:18;100580.16;;;5.25;74.32
65546;BME280;52177;55.968;37.498;2022-09-09T02:43:48;100585.31;;;5.27;74.49
65546;BME280;52177;55.968;37.498;2022-09-09T02:44:19;100580.03;;;5.27;74.33
65546;BME280;52177;55.968;37.498;2022-09-09T02:44:50;100587.00;;;5.28;74.27
65546;BME280;52177;55.968;37.498;2022-09-09T02:45:25;100585.19;;;5.28;74.32
65546;BME280;52177;55.968;37.498;2022-09-09T02:49:14;100590.81;;;5.13;74.80
65546;BME280;52177;55.968;37.498;2022-09-09T02:49:57;100592.78;;;5.11;74.82
65546;BME280;52177;55.968;37.498;2022-09-09T02:50:41;100593.00;;;5.07;74.60
65546;BME280;52177;55.968;37.498;2022-09-09T02:51:18;100595.88;;;5.04;74.76
65546;BME280;52177;55.968;37.498;2022-09-09T02:52:04;100589.88;;;5.02;74.76
65546;BME280;52177;55.968;37.498;2022-09-09T02:52:57;100588.06;;;5.03;74.82
65546;BME280;52177;55.968;37.498;2022-09-09T02:53:56;100594.31;;;5.02;74.70
65546;BME280;52177;55.968;37.498;2022-09-09T02:54:37;100588.19;;;5.01;74.81
65546;BME280;52177;55.968;37.498;2022-09-09T02:55:17;100590.84;;;5.01;75.00
65546;BME280;52177;55.968;37.498;2022-09-09T02:55:54;100594.91;;;5.05;74.99
65546;BME280;52177;55.968;37.498;2022-09-09T02:56:30;100598.41;;;5.06;75.03
65546;BME280;52177;55.968;37.498;2022-09-09T02:57:08;100596.84;;;5.03;74.86
65546;BME280;52177;55.968;37.498;2022-09-09T02:57:42;100591.56;;;5.03;74.71
65546;BME280;52177;55.968;37.498;2022-09-09T02:58:16;100596.00;;;5.03;74.57
65546;BME280;52177;55.968;37.498;2022-09-09T02:58:49;100603.19;;;5.01;74.68
65546;BME280;52177;55.968;37.498;2022-09-09T02:59:22;100596.34;;;4.98;74.57
65546;BME280;52177;55.968;37.498;2022-09-09T02:59:57;100597.41;;;4.96;74.72
65546;BME280;52177;55.968;37.498;2022-09-09T03:00:28;100599.97;;;4.97;74.70
65546;BME280;52177;55.968;37.498;2022-09-09T03:00:59;100604.41;;;4.97;74.75
65546;BME280;52177;55.968;37.498;2022-09-09T03:01:31;100594.78;;;4.96;74.69
65546;BME280;52177;55.968;37.498;2022-09-09T03:02:02;100599.22;;;4.95;74.84
65546;BME280;52177;55.968;37.498;2022-09-09T03:02:33;100596.59;;;4.95;74.62
65546;BME280;52177;55.968;37.498;2022-09-09T03:03:04;100598.41;;;4.95;74.69
65546;BME280;52177;55.968;37.498;2022-09-09T03:03:35;100597.41;;;4.96;74.75
65546;BME280;52177;55.968;37.498;2022-09-09T03:04:05;100599.97;;;4.97;74.63
65546;BME280;52177;55.968;37.498;2022-09-09T03:04:36;100593.13;;;4.95;74.70
65546;BME280;52177;55.968;37.498;2022-09-09T03:05:06;100601.75;;;4.97;74.53
65546;BME280;52177;55.968;37.498;2022-09-09T03:05:37;100600.78;;;4.98;74.65
65546;BME280;52177;55.968;37.498;2022-09-09T03:06:07;100591.31;;;4.95;74.72
65546;BME280;52177;55.968;37.498;2022-09-09T03:06:37;100601.03;;;4.95;74.64
65546;BME280;52177;55.968;37.498;2022-09-09T03:07:08;100593.34;;;4.92;74.21
65546;BME280;52177;55.968;37.498;2022-09-09T03:07:38;100596.34;;;4.87;74.32
65546;BME280;52177;55.968;37.498;2022-09-09T03:08:10;100594.75;;;4.84;74.17
65546;BME280;52177;55.968;37.498;2022-09-09T03:08:40;100600.28;;;4.81;74.36
65546;BME280;52177;55.968;37.498;2022-09-09T03:09:10;100589.00;;;4.79;74.63
65546;BME280;52177;55.968;37.498;2022-09-09T03:09:41;100598.63;;;4.80;74.75
65546;BME280;52177;55.968;37.498;2022-09-09T03:10:12;100601.25;;;4.80;74.77
65546;BME280;52177;55.968;37.498;2022-09-09T03:10:43;100596.06;;;4.79;74.66
65546;BME280;52177;55.968;37.498;2022-09-09T03:11:13;100596.91;;;4.79;74.67
65546;BME280;52177;55.968;37.498;2022-09-09T03:11:44;100597.88;;;4.78;74.54
65546;BME280;52177;55.968;37.498;2022-09-09T03:12:14;100598.00;;;4.77;74.66
65546;BME280;52177;55.968;37.498;2022-09-09T03:12:45;100604.09;;;4.77;74.65
65546;BME280;52177;55.968;37.498;2022-09-09T03:13:15;100603.41;;;4.75;74.63
65546;BME280;52177;55.968;37.498;2022-09-09T03:13:46;100604.25;;;4.76;74.57
65546;BME280;52177;55.968;37.498;2022-09-09T03:14:17;100602.53;;;4.75;74.52
65546;BME280;52177;55.968;37.498;2022-09-09T03:14:51;100604.34;;;4.74;74.49
65546;BME280;52177;55.968;37.498;2022-09-09T03:15:21;100610.38;;;4.76;74.60
65546;BME280;52177;55.968;37.498;2022-09-09T03:15:52;100607.84;;;4.75;74.45
65546;BME280;52177;55.968;37.498;2022-09-09T03:16:23;100604.34;;;4.74;74.54
65546;BME280;52177;55.968;37.498;2022-09-09T03:16:54;100605.19;;;4.75;74.53
65546;BME280;52177;55.968;37.498;2022-09-09T03:17:24;100607.00;;;4.74;74.51
65546;BME280;52177;55.968;37.498;2022-09-09T03:17:55;100603.41;;;4.75;74.46
65546;BME280;52177;55.968;37.498;2022-09-09T03:18:25;100606.88;;;4.76;74.34
65546;BME280;52177;55.968;37.498;2022-09-09T03:18:55;100606.06;;;4.75;74.32
65546;BME280;52177;55.968;37.498;2022-09-09T03:19:26;100606.88;;;4.76;74.26
65546;BME280;52177;55.968;37.498;2022-09-09T03:19:57;100609.53;;;4.76;74.39
65546;BME280;52177;55.968;37.498;2022-09-09T03:20:29;100604.25;;;4.76;74.35
65546;BME280;52177;55.968;37.498;2022-09-09T03:21:00;100612.28;;;4.74;74.22
65546;BME280;52177;55.968;37.498;2022-09-09T03:21:31;100614.19;;;4.72;74.00
65546;BME280;52177;55.968;37.498;2022-09-09T03:22:02;100615.28;;;4.70;74.16
65546;BME280;52177;55.968;37.498;2022-09-09T03:22:34;100612.88;;;4.67;74.37
65546;BME280;52177;55.968;37.498;2022-09-09T03:23:05;100615.63;;;4.65;74.38
65546;BME280;52177;55.968;37.498;2022-09-09T03:23:35;100611.16;;;4.65;74.61
65546;BME280;52177;55.968;37.498;2022-09-09T03:24:05;100606.75;;;4.66;74.49
65546;BME280;52177;55.968;37.498;2022-09-09T03:24:36;100618.16;;;4.67;74.65
65546;BME280;52177;55.968;37.498;2022-09-09T03:25:07;100619.00;;;4.67;74.70
65546;BME280;52177;55.968;37.498;2022-09-09T03:25:38;100612.13;;;4.64;74.56
65546;BME280;52177;55.968;37.498;2022-09-09T03:26:09;100623.53;;;4.65;74.46
65546;BME280;52177;55.968;37.498;2022-09-09T03:26:40;100620.16;;;4.63;74.53
65546;BME280;52177;55.968;37.498;2022-09-09T03:27:11;100619.31;;;4.62;74.59
65546;BME280;52177;55.968;37.498;2022-09-09T03:27:41;100616.69;;;4.62;74.63
65546;BME280;52177;55.968;37.498;2022-09-09T03:28:11;100621.97;;;4.62;74.67
65546;BME280;52177;55.968;37.498;2022-09-09T03:28:42;100621.88;;;4.64;74.53
65546;BME280;52177;55.968;37.498;2022-09-09T03:29:13;100628.81;;;4.65;74.78
65546;BME280;52177;55.968;37.498;2022-09-09T03:29:45;100626.06;;;4.67;74.66
65546;BME280;52177;55.968;37.498;2022-09-09T03:30:16;100620.56;;;4.70;74.68
65546;BME280;52177;55.968;37.498;2022-09-09T03:30:46;100619.72;;;4.69;74.69
65546;BME280;52177;55.968;37.498;2022-09-09T03:31:16;100620.56;;;4.70;74.55
65546;BME280;52177;55.968;37.498;2022-09-09T03:31:47;100619.63;;;4.71;74.56
65546;BME280;52177;55.968;37.498;2022-09-09T03:32:18;100615.16;;;4.71;74.51
65546;BME280;52177;55.968;37.498;2022-09-09T03:32:48;100621.28;;;4.72;74.38
65546;BME280;52177;55.968;37.498;2022-09-09T03:33:19;100624.66;;;4.74;74.40
65546;BME280;52177;55.968;37.498;2022-09-09T03:33:49;100622.75;;;4.76;74.43
65546;BME280;52177;55.968;37.498;2022-09-09T03:34:19;100621.03;;;4.75;74.35
65546;BME280;52177;55.968;37.498;2022-09-09T03:34:49;100621.78;;;4.77;74.46
65546;BME280;52177;55.968;37.498;2022-09-09T03:35:20;100616.47;;;4.77;74.53
65546;BME280;52177;55.968;37.498;2022-09-09T03:35:51;100624.41;;;4.77;74.33
65546;BME280;52177;55.968;37.498;2022-09-09T03:36:21;100621.66;;;4.78;74.65
65546;BME280;52177;55.968;37.498;2022-09-09T03:36:51;100623.34;;;4.79;74.40
65546;BME280;52177;55.968;37.498;2022-09-09T03:37:22;100626.81;;;4.80;74.42
65546;BME280;52177;55.968;37.498;2022-09-09T03:37:52;100614.47;;;4.80;74.44
65546;BME280;52177;55.968;37.498;2022-09-09T03:38:24;100623.22;;;4.81;74.28
65546;BME280;52177;55.968;37.498;2022-09-09T03:38:55;100623.22;;;4.81;74.11
65546;BME280;52177;55.968;37.498;2022-09-09T03:39:25;100626.81;;;4.80;73.98
65546;BME280;52177;55.968;37.498;2022-09-09T03:39:55;100628.50;;;4.81;74.23
65546;BME280;52177;55.968;37.498;2022-09-09T03:40:26;100625.97;;;4.79;74.27
65546;BME280;52177;55.968;37.498;2022-09-09T03:40:57;100625.03;;;4.80;74.29
65546;BME280;52177;55.968;37.498;2022-09-09T03:41:28;100619.63;;;4.82;74.45
65546;BME280;52177;55.968;37.498;2022-09-09T03:41:59;100625.63;;;4.84;74.50
65546;BME280;52177;55.968;37.498;2022-09-09T03:42:29;100625.53;;;4.85;74.45
65546;BME280;52177;55.968;37.498;2022-09-09T03:43:00;100617.50;;;4.87;74.45